createdAt,value
2023-01-19T00:01:52.941Z,61.42
2023-01-19T00:04:23.501Z,61.10
2023-01-19T00:06:55.628Z,60.36
2023-01-19T00:09:26.059Z,60.27
2023-01-19T00:11:56.475Z,59.73
2023-01-19T00:14:27.130Z,59.58
2023-01-19T00:16:57.661Z,59.74
2023-01-19T00:19:31.011Z,60.13
2023-01-19T00:22:03.078Z,59.96
2023-01-19T00:24:33.477Z,60.64
2023-01-19T00:27:05.186Z,60.83
2023-01-19T00:29:36.163Z,61.00
2023-01-19T00:32:08.259Z,61.54
2023-01-19T00:34:40.362Z,61.48
2023-01-19T00:37:12.878Z,61.45
2023-01-19T00:39:43.304Z,61.12
2023-01-19T00:42:44.397Z,60.33
2023-01-19T00:45:17.672Z,59.23
2023-01-19T00:47:48.990Z,58.83
2023-01-19T00:50:20.544Z,58.51
2023-01-19T00:52:54.090Z,58.35
2023-01-19T00:55:25.454Z,58.32
2023-01-19T00:57:56.108Z,58.28
2023-01-19T01:00:27.352Z,58.37
2023-01-19T01:02:58.616Z,58.07
2023-01-19T01:05:29.499Z,57.57
2023-01-19T01:08:01.596Z,57.51
2023-01-19T01:10:32.554Z,57.42
2023-01-19T01:13:22.495Z,57.79
2023-01-19T01:15:54.052Z,57.58
2023-01-19T01:18:25.048Z,57.47
2023-01-19T01:20:56.404Z,56.61
2023-01-19T01:23:28.510Z,56.68
2023-01-19T01:25:58.985Z,56.95
2023-01-19T01:28:29.675Z,56.92
2023-01-19T01:31:00.287Z,57.42
2023-01-19T01:33:40.791Z,57.60
2023-01-19T01:36:12.834Z,57.26
2023-01-19T01:38:45.183Z,56.71
2023-01-19T01:41:16.535Z,56.26
2023-01-19T01:43:49.251Z,55.92
2023-01-19T01:46:20.784Z,55.35
2023-01-19T01:48:58.399Z,56.05
2023-01-19T01:51:32.423Z,55.48
2023-01-19T01:54:18.221Z,55.04
2023-01-19T01:56:50.662Z,54.20
2023-01-19T01:59:40.064Z,54.72
2023-01-19T02:02:35.176Z,54.59
2023-01-19T02:05:08.764Z,53.96
2023-01-19T02:08:02.409Z,53.67
2023-01-19T02:10:51.593Z,53.27
2023-01-19T02:13:23.479Z,53.04
2023-01-19T02:15:55.899Z,52.98
2023-01-19T02:18:29.357Z,52.97
2023-01-19T02:21:09.362Z,53.41
2023-01-19T02:23:45.366Z,53.61
2023-01-19T02:26:18.707Z,53.78
2023-01-19T02:28:53.222Z,53.49
2023-01-19T02:31:24.028Z,53.11
2023-01-19T02:33:55.141Z,53.54
2023-01-19T02:36:29.572Z,53.21
2023-01-19T02:39:05.391Z,53.62
2023-01-19T02:41:53.249Z,53.40
2023-01-19T02:44:25.901Z,53.48
2023-01-19T02:46:57.401Z,53.26
2023-01-19T02:49:32.861Z,52.04
2023-01-19T02:52:20.605Z,52.64
2023-01-19T02:55:05.399Z,52.83
2023-01-19T02:57:55.721Z,53.34
2023-01-19T03:00:39.089Z,53.15
2023-01-19T03:03:25.895Z,52.59
2023-01-19T03:06:04.839Z,52.63
2023-01-19T03:08:45.263Z,52.79
2023-01-19T03:11:18.330Z,52.72
2023-01-19T03:13:54.175Z,52.94
2023-01-19T03:16:28.433Z,53.22
2023-01-19T03:19:00.976Z,52.94
2023-01-19T03:21:33.888Z,53.12
2023-01-19T03:24:07.564Z,53.41
2023-01-19T03:26:46.524Z,53.54
2023-01-19T03:29:20.301Z,53.24
2023-01-19T03:31:52.189Z,53.13
2023-01-19T03:34:24.854Z,53.66
2023-01-19T03:36:58.165Z,53.33
2023-01-19T03:39:30.478Z,52.58
2023-01-19T03:42:07.741Z,52.82
2023-01-19T03:44:41.139Z,53.59
2023-01-19T03:47:14.780Z,54.04
2023-01-19T03:49:47.910Z,54.26
2023-01-19T03:52:18.336Z,55.04
2023-01-19T03:54:49.385Z,55.69
2023-01-19T03:57:21.639Z,56.46
2023-01-19T03:59:52.231Z,56.50
2023-01-19T04:02:22.846Z,56.39
2023-01-19T04:04:53.742Z,56.47
2023-01-19T04:07:24.269Z,56.43
2023-01-19T04:09:54.765Z,56.94
2023-01-19T04:12:27.047Z,56.37
2023-01-19T04:14:57.657Z,55.67
2023-01-19T04:17:28.254Z,55.97
2023-01-19T04:19:58.753Z,56.84
2023-01-19T04:22:29.647Z,56.88
2023-01-19T04:25:00.119Z,57.20
2023-01-19T04:27:32.519Z,56.95
2023-01-19T04:30:02.994Z,56.87
2023-01-19T04:32:34.803Z,57.29
2023-01-19T04:35:05.231Z,57.16
2023-01-19T04:37:35.725Z,57.24
2023-01-19T04:40:06.968Z,57.23
2023-01-19T04:42:45.911Z,56.48
2023-01-19T04:45:16.802Z,56.34
2023-01-19T04:47:47.283Z,56.33
2023-01-19T04:50:18.585Z,56.71
2023-01-19T04:52:49.796Z,57.72
2023-01-19T04:55:20.840Z,57.88
2023-01-19T04:57:53.001Z,57.41
2023-01-19T05:00:24.315Z,57.13
2023-01-19T05:02:54.935Z,56.59
2023-01-19T05:05:25.793Z,56.39
2023-01-19T05:07:56.678Z,56.30
2023-01-19T05:10:27.211Z,56.42
2023-01-19T05:12:59.442Z,55.37
2023-01-19T05:15:30.473Z,55.25
2023-01-19T05:18:01.098Z,55.50
2023-01-19T05:20:31.601Z,55.21
2023-01-19T05:23:02.373Z,55.38
2023-01-19T05:25:33.233Z,55.68
2023-01-19T05:28:05.424Z,55.71
2023-01-19T05:30:36.400Z,55.74
2023-01-19T05:33:07.119Z,55.63
2023-01-19T05:35:37.516Z,55.98
2023-01-19T05:38:08.095Z,56.08
2023-01-19T05:40:38.563Z,56.28
2023-01-19T05:43:10.686Z,56.29
2023-01-19T05:45:42.010Z,56.24
2023-01-19T05:48:12.650Z,56.34
2023-01-19T05:50:43.139Z,56.55
2023-01-19T05:53:14.139Z,56.37
2023-01-19T05:55:44.684Z,56.20
2023-01-19T05:58:16.805Z,56.00
2023-01-19T06:00:47.293Z,56.08
2023-01-19T06:03:18.082Z,56.08
2023-01-19T06:05:48.627Z,56.08
2023-01-19T06:08:19.405Z,55.99
2023-01-19T06:10:49.801Z,56.00
2023-01-19T06:13:22.173Z,56.12
2023-01-19T06:15:58.602Z,56.57
2023-01-19T06:18:29.202Z,56.59
2023-01-19T06:21:01.011Z,56.67
2023-01-19T06:23:34.577Z,56.69
2023-01-19T06:26:06.227Z,57.14
2023-01-19T06:28:38.319Z,57.02
2023-01-19T06:31:09.869Z,56.87
2023-01-19T06:33:40.434Z,57.38
2023-01-19T06:36:14.016Z,57.46
2023-01-19T06:38:44.633Z,57.65
2023-01-19T06:41:15.171Z,57.62
2023-01-19T06:43:47.387Z,57.96
2023-01-19T06:46:18.065Z,57.87
2023-01-19T06:48:49.167Z,57.92
2023-01-19T06:51:19.657Z,57.76
2023-01-19T06:53:50.379Z,57.85
2023-01-19T06:56:20.912Z,58.36
2023-01-19T06:58:54.451Z,58.36
2023-01-19T07:01:25.040Z,58.03
2023-01-19T07:03:55.498Z,58.28
2023-01-19T07:06:25.894Z,58.15
2023-01-19T07:08:57.477Z,58.04
2023-01-19T07:11:33.105Z,58.17
2023-01-19T07:14:05.331Z,58.80
2023-01-19T07:16:35.868Z,59.06
2023-01-19T07:19:06.648Z,58.56
2023-01-19T07:21:37.130Z,58.51
2023-01-19T07:24:07.924Z,58.83
2023-01-19T07:26:38.348Z,59.32
2023-01-19T07:29:10.702Z,59.89
2023-01-19T07:31:41.273Z,60.85
2023-01-19T07:34:12.581Z,61.36
2023-01-19T07:36:43.085Z,61.86
2023-01-19T07:39:13.453Z,62.34
2023-01-19T07:41:43.855Z,62.60
2023-01-19T07:44:15.871Z,63.03
2023-01-19T07:46:46.407Z,63.60
2023-01-19T07:49:16.907Z,64.13
2023-01-19T07:51:47.274Z,64.52
2023-01-19T07:54:17.769Z,64.66
2023-01-19T07:56:48.170Z,64.80
2023-01-19T07:59:20.242Z,65.28
2023-01-19T08:01:56.673Z,65.51
2023-01-19T08:07:47.487Z,67.07
2023-01-19T08:10:23.984Z,67.39
2023-01-19T08:13:00.727Z,67.59
2023-01-19T08:15:33.052Z,67.82
2023-01-19T08:22:36.639Z,68.66
2023-01-19T08:25:10.402Z,68.43
2023-01-19T08:27:46.745Z,68.88
2023-01-19T08:30:51.857Z,68.39
2023-01-19T08:33:28.042Z,68.78
2023-01-19T08:36:01.311Z,69.29
2023-01-19T08:38:35.447Z,70.11
2023-01-19T08:41:09.522Z,70.49
2023-01-19T08:43:42.289Z,70.55
2023-01-19T08:46:12.770Z,70.95
2023-01-19T08:48:46.336Z,70.83
2023-01-19T08:51:20.261Z,71.04
2023-01-19T08:54:03.867Z,71.30
2023-01-19T08:56:38.882Z,71.18
2023-01-19T09:08:01.153Z,70.92
2023-01-19T09:10:37.133Z,70.98
2023-01-19T09:13:12.389Z,70.85
2023-01-19T09:15:44.845Z,70.45
2023-01-19T09:18:17.668Z,70.76
2023-01-19T09:20:50.115Z,71.00
2023-01-19T09:23:23.660Z,71.18
2023-01-19T09:26:01.151Z,71.40
2023-01-19T09:28:33.230Z,71.58
2023-01-19T09:31:09.640Z,71.63
2023-01-19T09:33:41.215Z,71.76
2023-01-19T09:36:13.593Z,71.52
2023-01-19T09:38:45.048Z,71.03
2023-01-19T09:41:24.299Z,70.69
2023-01-19T09:44:00.204Z,70.17
2023-01-19T09:46:38.653Z,70.03
2023-01-19T09:49:16.292Z,70.04
2023-01-19T09:51:50.762Z,69.79
2023-01-19T09:54:23.757Z,69.67
2023-01-19T09:56:57.686Z,69.62
2023-01-19T09:59:32.047Z,69.51
2023-01-19T10:02:21.957Z,68.89
2023-01-19T10:05:04.330Z,68.94
2023-01-19T10:07:56.054Z,68.87
2023-01-19T10:10:31.509Z,68.77
2023-01-19T10:13:22.339Z,68.99
2023-01-19T10:16:05.337Z,68.88
2023-01-19T10:18:48.885Z,69.08
2023-01-19T10:21:24.714Z,69.10
2023-01-19T10:23:59.926Z,68.87
2023-01-19T10:26:37.606Z,69.33
2023-01-19T10:29:16.940Z,69.59
2023-01-19T10:31:50.502Z,70.11
2023-01-19T10:34:23.705Z,70.59
2023-01-19T10:37:06.585Z,71.35
2023-01-19T10:39:38.866Z,71.64
2023-01-19T10:42:15.812Z,71.86
2023-01-19T10:44:50.283Z,72.04
2023-01-19T10:47:24.111Z,72.87
2023-01-19T10:49:56.971Z,73.14
2023-01-19T10:52:34.487Z,73.43
2023-01-19T10:55:08.707Z,73.83
2023-01-19T10:57:44.525Z,74.18
2023-01-19T11:00:40.277Z,74.36
2023-01-19T11:03:26.982Z,74.74
2023-01-19T11:06:20.355Z,74.42
2023-01-19T11:08:53.382Z,74.49
2023-01-19T11:11:26.923Z,74.88
2023-01-19T11:14:13.201Z,74.96
2023-01-19T11:16:52.948Z,75.05
2023-01-19T11:19:32.263Z,75.11
2023-01-19T11:22:22.810Z,75.55
2023-01-19T11:24:54.676Z,75.44
2023-01-19T11:27:26.484Z,75.22
2023-01-19T11:30:11.438Z,75.24
2023-01-19T11:32:44.910Z,75.42
2023-01-19T11:35:38.835Z,75.86
2023-01-19T11:38:22.306Z,75.68
2023-01-19T11:40:57.474Z,75.74
2023-01-19T11:43:48.373Z,75.90
2023-01-19T11:46:22.576Z,75.92
2023-01-19T11:49:02.917Z,75.92
2023-01-19T11:51:40.766Z,75.99
2023-01-19T11:54:24.795Z,75.97
2023-01-19T11:56:57.837Z,75.94
2023-01-19T12:03:21.163Z,76.16
2023-01-19T12:05:58.301Z,75.98
2023-01-19T12:08:38.401Z,75.86
2023-01-19T12:11:13.580Z,75.10
2023-01-19T12:13:45.630Z,74.98
2023-01-19T12:16:22.453Z,74.76
2023-01-19T12:18:59.027Z,74.94
2023-01-19T12:21:31.187Z,74.84
2023-01-19T12:31:21.574Z,75.12
2023-01-19T12:33:52.549Z,75.30
2023-01-19T12:36:42.463Z,75.00
2023-01-19T12:39:20.142Z,74.95
2023-01-19T12:41:54.741Z,74.15
2023-01-19T12:44:36.404Z,73.47
2023-01-19T12:47:28.106Z,73.18
2023-01-19T12:50:06.636Z,72.95
2023-01-19T12:52:48.884Z,72.52
2023-01-19T12:55:25.152Z,72.60
2023-01-19T12:58:03.698Z,73.14
2023-01-19T13:00:52.910Z,73.31
2023-01-19T13:03:46.515Z,73.06
2023-01-19T13:06:21.128Z,73.18
2023-01-19T13:09:03.377Z,73.37
2023-01-19T13:11:34.750Z,73.79
2023-01-19T13:14:37.199Z,74.42
2023-01-19T13:17:35.962Z,74.76
2023-01-19T13:20:25.480Z,75.28
2023-01-19T13:23:29.740Z,75.60
2023-01-19T13:30:38.424Z,75.92
2023-01-19T13:33:23.187Z,76.11
2023-01-19T13:35:56.503Z,75.25
2023-01-19T13:38:38.887Z,74.82
2023-01-19T13:41:09.512Z,74.79
2023-01-19T13:43:41.850Z,74.92
2023-01-19T13:46:18.267Z,74.88
2023-01-19T13:49:01.580Z,74.84
2023-01-19T13:51:35.381Z,75.20
2023-01-19T13:54:07.020Z,75.80
2023-01-19T13:56:37.758Z,76.45
2023-01-19T13:59:15.035Z,76.61
2023-01-19T14:01:48.625Z,76.64
2023-01-19T14:04:31.505Z,76.62
2023-01-19T14:07:05.104Z,76.60
2023-01-19T14:09:38.398Z,76.42
2023-01-19T14:12:16.706Z,76.61
2023-01-19T14:14:49.981Z,76.48
2023-01-19T14:17:26.670Z,76.27
2023-01-19T14:20:00.600Z,76.25
2023-01-19T14:26:57.698Z,76.71
2023-01-19T14:29:33.336Z,76.67
2023-01-19T14:32:19.063Z,76.81
2023-01-19T14:34:57.344Z,76.96
2023-01-19T14:37:34.196Z,76.94
2023-01-19T14:40:21.927Z,76.55
2023-01-19T14:42:56.160Z,76.88
2023-01-19T14:45:31.812Z,76.38
2023-01-19T14:48:07.670Z,76.70
2023-01-19T14:50:54.179Z,76.18
2023-01-19T14:53:46.550Z,76.17
2023-01-19T14:56:32.586Z,76.26
2023-01-19T14:59:05.726Z,76.37
2023-01-19T15:01:40.972Z,76.66
2023-01-19T15:04:17.199Z,77.03
2023-01-19T15:06:55.098Z,77.04
2023-01-19T15:09:28.120Z,77.39
2023-01-19T15:12:10.346Z,77.62
2023-01-19T15:14:41.237Z,77.89
2023-01-19T15:17:26.419Z,77.84
2023-01-19T15:19:57.928Z,77.92
2023-01-19T15:22:32.052Z,78.16
2023-01-19T15:25:09.199Z,78.19
2023-01-19T15:27:40.116Z,78.18
2023-01-19T15:30:24.413Z,77.96
2023-01-19T15:32:55.179Z,78.05
2023-01-19T15:35:26.924Z,77.95
2023-01-19T15:37:59.945Z,77.59
2023-01-19T15:40:32.615Z,77.47
2023-01-19T15:43:03.384Z,77.26
2023-01-19T15:45:42.887Z,77.11
2023-01-19T15:48:14.792Z,77.11
2023-01-19T15:50:49.062Z,76.86
2023-01-19T15:53:24.680Z,76.96
2023-01-19T15:55:58.968Z,76.85
2023-01-19T15:58:33.698Z,77.12
2023-01-19T16:01:11.603Z,77.10
2023-01-19T16:03:43.182Z,77.26
2023-01-19T16:06:18.833Z,77.08
2023-01-19T16:09:00.150Z,76.76
2023-01-19T16:11:35.982Z,76.74
2023-01-19T16:14:07.044Z,76.68
2023-01-19T16:16:40.611Z,76.50
2023-01-19T16:19:11.523Z,77.05
2023-01-19T16:21:50.053Z,76.95
2023-01-19T16:24:23.312Z,77.00
2023-01-19T16:26:58.005Z,77.05
2023-01-19T16:29:31.750Z,76.76
2023-01-19T16:32:02.466Z,76.29
2023-01-19T16:34:32.944Z,76.44
2023-01-19T16:37:04.112Z,76.44
2023-01-19T16:39:37.572Z,76.55
2023-01-19T16:42:11.556Z,76.65
2023-01-19T16:44:42.124Z,76.72
2023-01-19T16:47:26.243Z,76.76
2023-01-19T16:49:59.596Z,77.17
2023-01-19T16:52:31.655Z,77.24
2023-01-19T16:55:02.336Z,76.92
2023-01-19T16:57:35.473Z,77.16
2023-01-19T17:00:19.493Z,77.49
2023-01-19T17:02:50.999Z,77.33
2023-01-19T17:05:25.037Z,77.58
2023-01-19T17:07:56.747Z,77.63
2023-01-19T17:10:27.421Z,78.35
2023-01-19T17:13:00.747Z,78.79
2023-01-19T17:15:37.322Z,79.38
2023-01-19T17:18:11.243Z,79.32
2023-01-19T17:20:45.799Z,79.55
2023-01-19T17:23:18.776Z,79.59
2023-01-19T17:25:56.144Z,79.67
2023-01-19T17:28:33.814Z,79.19
2023-01-19T17:33:55.174Z,78.76
2023-01-19T17:36:33.972Z,78.93
2023-01-19T17:39:12.345Z,79.05
2023-01-19T17:41:45.939Z,79.41
2023-01-19T17:44:21.278Z,79.19
2023-01-19T17:46:52.286Z,79.22
2023-01-19T17:49:23.023Z,79.09
2023-01-19T17:51:55.256Z,79.12
2023-01-19T17:54:30.638Z,79.10
2023-01-19T17:57:01.309Z,79.60
2023-01-19T17:59:37.410Z,79.56
2023-01-19T18:02:12.839Z,79.95
2023-01-19T18:04:43.663Z,80.19
2023-01-19T18:07:14.159Z,80.24
2023-01-19T18:09:48.637Z,80.12
2023-01-19T18:12:20.681Z,80.19
2023-01-19T18:15:00.657Z,80.14
2023-01-19T18:17:30.517Z,80.34
2023-01-19T18:20:01.376Z,79.97
2023-01-19T18:22:33.022Z,80.11
2023-01-19T18:25:03.680Z,80.17
2023-01-19T18:27:38.396Z,80.33
2023-01-19T18:30:12.659Z,80.34
2023-01-19T18:32:46.260Z,80.45
2023-01-19T18:35:17.146Z,80.15
2023-01-19T18:37:52.587Z,80.24
2023-01-19T18:40:28.060Z,80.11
2023-01-19T18:42:59.075Z,79.94
2023-01-19T18:56:14.679Z,79.46
2023-01-19T18:58:47.867Z,79.84
2023-01-19T19:01:25.941Z,80.03
2023-01-19T19:03:57.551Z,79.83
2023-01-19T19:06:32.976Z,79.96
2023-01-19T19:09:04.197Z,79.97
2023-01-19T19:11:35.840Z,80.05
2023-01-19T19:14:09.048Z,80.17
2023-01-19T19:16:48.958Z,80.34
2023-01-19T19:19:21.091Z,80.56
2023-01-19T19:21:55.986Z,80.81
2023-01-19T19:24:26.727Z,80.72
2023-01-19T19:26:57.297Z,80.81
2023-01-19T19:29:29.291Z,80.89
2023-01-19T19:32:01.481Z,80.85
2023-01-19T19:34:35.008Z,80.97
2023-01-19T19:37:05.967Z,81.30
2023-01-19T19:39:39.824Z,81.36
2023-01-19T19:42:13.294Z,81.20
2023-01-19T19:44:43.746Z,81.23
2023-01-19T19:47:17.400Z,81.42
2023-01-19T19:49:47.843Z,81.39
2023-01-19T19:52:20.291Z,81.16
2023-01-19T19:54:53.338Z,81.32
2023-01-19T19:57:28.468Z,81.46
2023-01-19T20:00:01.434Z,81.07
2023-01-19T20:02:36.695Z,81.36
2023-01-19T20:05:10.534Z,81.49
2023-01-19T20:07:49.944Z,81.79
2023-01-19T20:10:20.908Z,81.88
2023-01-19T20:12:53.689Z,82.00
2023-01-19T20:15:26.899Z,81.93
2023-01-19T20:17:59.206Z,81.82
2023-01-19T20:21:08.317Z,82.08
2023-01-19T20:27:44.934Z,82.69
2023-01-19T20:30:16.260Z,82.44
2023-01-19T20:32:50.150Z,81.86
2023-01-19T20:35:30.390Z,81.61
2023-01-19T20:38:01.120Z,81.58
2023-01-19T20:43:40.426Z,82.05
2023-01-19T20:46:12.566Z,81.96
2023-01-19T20:48:44.674Z,82.14
2023-01-19T20:51:19.666Z,81.91
2023-01-19T20:53:50.908Z,82.37
2023-01-19T20:56:21.407Z,82.26
2023-01-19T20:58:53.464Z,82.32
2023-01-19T21:01:25.851Z,82.10
2023-01-19T21:04:12.143Z,82.05
2023-01-19T21:06:44.543Z,82.00
2023-01-19T21:09:15.153Z,82.43
2023-01-19T21:11:45.806Z,82.93
2023-01-19T21:14:16.283Z,82.90
2023-01-19T21:16:46.832Z,83.02
2023-01-19T21:19:17.595Z,82.87
2023-01-19T21:21:50.138Z,82.99
2023-01-19T21:24:20.731Z,83.14
2023-01-19T21:26:51.224Z,83.16
2023-01-19T21:29:21.720Z,82.69
2023-01-19T21:31:52.259Z,82.90
2023-01-19T21:34:22.934Z,82.92
2023-01-19T21:36:55.037Z,82.99
2023-01-19T21:39:25.610Z,83.10
2023-01-19T21:41:56.139Z,82.98
2023-01-19T21:44:26.598Z,83.28
2023-01-19T21:46:57.218Z,83.33
2023-01-19T21:49:27.865Z,83.45
2023-01-19T21:52:08.132Z,83.46
2023-01-19T21:54:39.060Z,83.67
2023-01-19T21:57:09.727Z,84.06
2023-01-19T21:59:40.317Z,83.97
2023-01-19T22:02:14.609Z,84.11
2023-01-19T22:04:45.453Z,84.15
2023-01-19T22:07:26.277Z,84.03
2023-01-19T22:09:56.776Z,84.08
2023-01-19T22:12:27.373Z,84.07
2023-01-19T22:14:58.307Z,84.26
2023-01-19T22:17:29.345Z,84.09
2023-01-19T22:20:00.629Z,84.19
2023-01-19T22:22:35.085Z,84.12
2023-01-19T22:25:06.030Z,84.21
2023-01-19T22:27:38.468Z,84.28
2023-01-19T22:30:10.276Z,83.67
2023-01-19T22:32:40.712Z,83.09
2023-01-19T22:35:11.934Z,82.96
2023-01-19T22:37:44.347Z,82.22
2023-01-19T22:40:15.845Z,81.96
2023-01-19T22:42:49.356Z,81.13
2023-01-19T22:45:19.859Z,81.00
2023-01-19T22:47:50.348Z,81.02
2023-01-19T22:50:21.134Z,80.40
2023-01-19T22:52:57.239Z,80.23
2023-01-19T22:55:27.877Z,80.35
2023-01-19T22:57:59.425Z,79.89
2023-01-19T23:00:30.959Z,80.02
2023-01-19T23:03:01.340Z,79.78
2023-01-19T23:05:31.843Z,79.79
2023-01-19T23:08:04.082Z,79.99
2023-01-19T23:10:35.805Z,79.58
2023-01-19T23:13:06.399Z,79.62
2023-01-19T23:15:37.105Z,79.87
2023-01-19T23:18:07.792Z,79.54
2023-01-19T23:20:38.905Z,79.52
2023-01-19T23:23:11.016Z,79.72
2023-01-19T23:25:41.549Z,79.65
2023-01-19T23:28:12.335Z,79.62
2023-01-19T23:30:42.909Z,79.41
2023-01-19T23:33:13.436Z,79.50
2023-01-19T23:35:43.812Z,79.46
2023-01-19T23:38:16.597Z,79.28
2023-01-19T23:40:47.134Z,79.06
2023-01-19T23:43:17.722Z,79.20
2023-01-19T23:45:48.299Z,79.20
2023-01-19T23:48:18.956Z,79.18
2023-01-19T23:50:49.573Z,79.06
2023-01-19T23:53:21.862Z,78.98
2023-01-19T23:55:52.920Z,79.50
2023-01-19T23:58:23.460Z,79.48
